Time;durP1;ratioP1;P1;durP2;ratioP2;P2;SDS_P1;SDS_P2;PMS_P1;PMS_P2;Temp;Humidity;BMP_temperature;BMP_pressure;BME280_temperature;BME280_humidity;BME280_pressure;Samples;Min_cycle;Max_cycle;Signal;HPM_P1;HPM_P2
2022/06/19 00:00:07;;;;;;;11.90;4.75;;;26.40;37.80;;;26.79;33.88;97178.72;5023145;28;20276;-50
2022/06/19 00:02:40;;;;;;;11.68;5.00;;;26.30;37.80;;;26.73;34.00;97168.91;5026235;28;20075;-49
2022/06/19 00:05:09;;;;;;;9.43;4.07;;;26.30;37.80;;;26.70;33.75;97165.63;5022582;28;20049;-50
2022/06/19 00:07:37;;;;;;;11.57;4.55;;;26.30;37.60;;;26.70;33.74;97153.91;5023560;28;20052;-50
2022/06/19 00:10:07;;;;;;;12.63;4.63;;;26.30;37.60;;;26.70;33.52;97151.97;5022701;28;20056;-48
2022/06/19 00:12:35;;;;;;;10.75;4.93;;;26.30;37.50;;;26.68;33.63;97148.72;5023734;28;20052;-51
2022/06/19 00:15:04;;;;;;;10.73;4.72;;;26.30;37.50;;;26.64;33.57;97138.63;5023618;28;20052;-48
2022/06/19 00:17:32;;;;;;;9.52;4.85;;;26.20;37.50;;;26.64;33.58;97138.63;5023406;28;20359;-51
2022/06/19 00:19:59;;;;;;;10.65;5.10;;;26.30;37.30;;;26.62;33.66;97147.09;5023390;28;20044;-53
2022/06/19 00:22:28;;;;;;;15.55;4.60;;;26.30;37.50;;;26.57;33.67;97138.88;5023413;28;20042;-52
2022/06/19 00:24:56;;;;;;;8.77;3.70;;;26.20;37.60;;;26.53;34.13;97140.53;5023457;28;20056;-52
2022/06/19 00:27:25;;;;;;;13.07;5.75;;;26.20;37.80;;;26.51;33.89;97146.25;5023375;28;20042;-51
2022/06/19 00:29:53;;;;;;;9.60;4.65;;;26.10;37.90;;;26.50;34.00;97144.66;5023650;28;20041;-48
2022/06/19 00:32:21;;;;;;;13.82;5.70;;;26.10;38.00;;;26.46;34.02;97142.72;5023437;28;20046;-49
2022/06/19 00:34:48;;;;;;;10.85;4.43;;;26.00;38.30;;;26.40;34.52;97141.91;5022836;28;20052;-52
2022/06/19 00:37:16;;;;;;;10.27;4.55;;;26.00;38.70;;;26.35;34.37;97136.47;5022642;28;20056;-52
2022/06/19 00:39:45;;;;;;;11.05;4.68;;;25.90;38.50;;;26.29;34.94;97126.69;5022993;28;20056;-53
2022/06/19 00:42:15;;;;;;;13.55;6.72;;;25.80;38.70;;;26.20;34.83;97126.41;5023179;28;20309;-49
2022/06/19 00:44:43;;;;;;;9.05;4.47;;;25.70;39.00;;;26.13;34.63;97118.50;5023226;28;20046;-51
2022/06/19 00:47:21;;;;;;;13.30;5.88;;;25.70;38.90;;;26.14;34.78;97116.59;5023074;28;20038;-49
2022/06/19 00:50:17;;;;;;;9.98;4.93;;;25.80;39.10;;;26.10;34.94;97107.31;5022797;28;20054;-54
2022/06/19 00:52:45;;;;;;;9.52;4.35;;;25.80;39.20;;;26.11;34.43;97100.75;5023074;28;20045;-52
2022/06/19 00:55:27;;;;;;;11.82;4.72;;;25.80;38.50;;;26.12;34.76;97102.41;5021799;28;20060;-50
2022/06/19 00:58:09;;;;;;;12.18;4.80;;;25.80;38.60;;;26.13;34.57;97101.31;5022650;28;20054;-49
2022/06/19 01:00:39;;;;;;;10.93;5.30;;;25.80;39.30;;;26.12;34.74;97103.22;5021748;28;20046;-50
2022/06/19 01:03:14;;;;;;;11.48;4.68;;;25.80;38.30;;;26.11;34.75;97104.34;5022949;28;20060;-50
2022/06/19 01:05:44;;;;;;;10.63;4.65;;;25.80;38.50;;;26.08;34.38;97096.69;5022763;28;20046;-50
2022/06/19 01:08:12;;;;;;;10.88;5.22;;;25.80;38.40;;;26.07;35.19;97096.94;5021655;28;20042;-51
2022/06/19 01:10:46;;;;;;;9.88;4.43;;;25.80;38.60;;;26.02;34.96;97086.88;5020152;28;20347;-48
2022/06/19 01:13:18;;;;;;;11.63;4.55;;;25.70;38.90;;;25.97;35.05;97078.69;5022529;28;20382;-51
2022/06/19 01:15:47;;;;;;;10.23;4.70;;;25.60;39.10;;;25.92;35.30;97078.72;5022934;28;20053;-53
2022/06/19 01:18:15;;;;;;;17.48;6.93;;;25.60;38.80;;;25.87;35.30;97081.41;5022244;28;20354;-50
2022/06/19 01:20:43;;;;;;;12.18;4.07;;;25.50;39.20;;;25.79;35.33;97077.31;5022582;28;20045;-52
2022/06/19 01:23:26;;;;;;;9.95;4.43;;;25.50;39.50;;;25.76;35.61;97074.31;5022460;28;20228;-52
2022/06/19 01:25:53;;;;;;;9.85;4.90;;;25.40;40.20;;;25.71;35.70;97073.22;5021424;28;20221;-50
2022/06/19 01:28:45;;;;;;;11.48;5.15;;;25.30;39.80;;;25.61;35.75;97069.66;5022219;28;20248;-50
2022/06/19 01:31:30;;;;;;;9.90;4.43;;;25.20;40.60;;;25.49;36.16;97067.22;5021620;28;20056;-51
2022/06/19 01:34:27;;;;;;;9.38;4.78;;;25.00;41.30;;;25.39;36.16;97068.03;5021265;28;20058;-51
2022/06/19 01:36:58;;;;;;;10.35;4.70;;;24.90;41.20;;;25.31;36.48;97063.94;5021566;28;20260;-53
2022/06/19 01:39:31;;;;;;;8.63;4.22;;;24.80;41.60;;;25.28;36.58;97060.91;5021938;28;20247;-51
2022/06/19 01:42:01;;;;;;;8.85;5.00;;;24.80;41.40;;;25.27;36.39;97059.28;5022275;28;20041;-50
2022/06/19 01:44:31;;;;;;;14.10;5.55;;;24.90;41.10;;;25.29;36.61;97057.94;5021930;28;20053;-52
2022/06/19 01:47:00;;;;;;;8.98;4.30;;;24.90;40.90;;;25.29;36.71;97057.13;5021648;28;20046;-52
2022/06/19 01:49:32;;;;;;;11.23;4.10;;;24.90;40.90;;;25.29;36.51;97059.84;5020212;28;20052;-50
2022/06/19 01:52:05;;;;;;;10.02;4.15;;;24.90;41.00;;;25.27;36.51;97059.28;5021233;28;20059;-51
2022/06/19 01:54:44;;;;;;;10.05;4.78;;;24.90;40.90;;;25.24;36.73;97062.56;5020987;28;20049;-50
2022/06/19 01:57:13;;;;;;;10.43;4.68;;;24.90;41.60;;;25.20;36.65;97064.16;5021384;28;20045;-50
2022/06/19 01:59:44;;;;;;;11.98;5.88;;;24.80;41.20;;;25.14;37.11;97057.88;5020766;28;20049;-50
2022/06/19 02:02:15;;;;;;;7.43;4.47;;;24.70;41.60;;;25.10;36.81;97062.22;5022186;28;20054;-50
2022/06/19 02:04:44;;;;;;;15.15;5.70;;;24.60;41.70;;;25.07;37.08;97051.88;5021054;28;20347;-51
2022/06/19 02:07:21;;;;;;;11.07;5.13;;;24.60;41.70;;;25.06;37.00;97051.03;5020870;28;20042;-49
2022/06/19 02:09:54;;;;;;;8.93;4.13;;;24.70;41.90;;;25.01;36.96;97047.50;5019963;28;20363;-51
2022/06/19 02:12:23;;;;;;;12.68;4.70;;;24.60;42.10;;;24.96;37.23;97059.19;5020981;28;20045;-48
2022/06/19 02:14:51;;;;;;;8.50;3.85;;;24.60;42.00;;;24.93;37.33;97057.00;5022383;28;20076;-48
2022/06/19 02:17:35;;;;;;;8.07;3.90;;;24.50;42.20;;;24.87;37.85;97058.91;5021877;28;20072;-48
2022/06/19 02:20:05;;;;;;;12.43;7.18;;;24.50;43.10;;;24.83;37.49;97056.97;5022002;28;20045;-49
2022/06/19 02:22:34;;;;;;;11.27;4.65;;;24.40;42.20;;;24.80;37.33;97052.09;5022189;28;20050;-51
2022/06/19 02:25:03;;;;;;;13.75;4.78;;;24.40;42.20;;;24.80;37.54;97049.38;5022220;28;20046;-49
2022/06/19 02:27:34;;;;;;;8.82;4.65;;;24.40;42.00;;;24.82;37.29;97045.28;5020687;28;20048;-51
2022/06/19 02:30:05;;;;;;;14.30;5.18;;;24.40;41.90;;;24.85;37.23;97043.91;5020890;28;20052;-52
2022/06/19 02:32:50;;;;;;;9.60;4.50;;;24.50;41.60;;;24.89;36.99;97040.41;5022286;28;20064;-50
2022/06/19 02:35:25;;;;;;;9.88;4.38;;;24.60;41.40;;;24.93;36.86;97037.94;5021892;28;20053;-51
2022/06/19 02:37:56;;;;;;;9.50;4.13;;;24.60;41.20;;;24.93;36.84;97036.06;5021767;28;20053;-52
2022/06/19 02:40:56;;;;;;;12.38;4.28;;;24.60;41.10;;;24.95;36.83;97036.59;5022195;28;20049;-49
2022/06/19 02:43:30;;;;;;;10.30;3.72;;;24.70;41.20;;;24.96;36.92;97034.69;5020659;28;20068;-52
2022/06/19 02:45:58;;;;;;;14.32;4.35;;;24.70;41.10;;;24.96;36.70;97038.22;5020377;28;20050;-48
2022/06/19 02:48:30;;;;;;;13.32;4.78;;;24.70;41.00;;;24.96;36.87;97031.97;5021474;28;20045;-55
2022/06/19 02:51:03;;;;;;;10.73;3.72;;;24.70;41.10;;;24.94;37.08;97026.78;5021518;28;20064;-53
2022/06/19 02:53:30;;;;;;;9.38;4.68;;;24.60;41.20;;;24.90;37.13;97028.41;5021681;28;20057;-51
2022/06/19 02:55:58;;;;;;;13.10;4.93;;;24.50;41.40;;;24.84;37.38;97029.50;5021720;28;20053;-51
2022/06/19 02:58:26;;;;;;;12.27;4.15;;;24.40;41.80;;;24.81;37.37;97021.03;5021171;28;20049;-50
2022/06/19 03:00:54;;;;;;;10.68;4.60;;;24.40;41.90;;;24.79;37.34;97028.66;5025454;28;20048;-46
2022/06/19 03:03:27;;;;;;;9.65;3.95;;;24.40;42.00;;;24.73;37.55;97023.19;5025194;28;20240;-50
2022/06/19 03:05:55;;;;;;;10.07;4.38;;;24.40;42.50;;;24.66;37.70;97009.03;5024933;28;20156;-49
2022/06/19 03:08:23;;;;;;;6.75;3.70;;;24.30;42.50;;;24.65;37.49;97020.19;5024713;28;20052;-51
2022/06/19 03:10:51;;;;;;;8.98;4.00;;;24.20;42.40;;;24.61;37.74;97010.91;5023917;28;20057;-49
2022/06/19 03:13:21;;;;;;;9.95;4.20;;;24.20;42.50;;;24.57;37.83;97007.91;5024898;28;20054;-51
2022/06/19 03:16:07;;;;;;;8.48;4.13;;;24.20;42.70;;;24.55;38.15;97010.88;5024834;28;20046;-51
2022/06/19 03:18:38;;;;;;;12.20;4.50;;;24.20;43.00;;;24.55;37.82;97005.44;5025086;28;20056;-51
2022/06/19 03:21:06;;;;;;;10.77;4.90;;;24.20;42.50;;;24.54;37.75;97001.09;5024743;28;20049;-50
2022/06/19 03:23:34;;;;;;;7.22;4.63;;;24.20;42.40;;;24.53;37.77;97004.91;5024792;28;20050;-53
2022/06/19 03:26:02;;;;;;;9.63;4.10;;;24.20;42.50;;;24.54;37.77;97003.00;5024862;28;20229;-51
2022/06/19 03:28:30;;;;;;;11.00;4.97;;;24.20;42.30;;;24.52;37.91;96992.41;5024111;28;20216;-51
2022/06/19 03:30:57;;;;;;;10.55;4.55;;;24.20;42.70;;;24.47;38.03;96999.69;5024668;28;20077;-50
2022/06/19 03:33:25;;;;;;;9.98;4.97;;;24.10;43.00;;;24.42;38.07;96999.66;5024487;28;20054;-51
2022/06/19 03:35:53;;;;;;;11.85;4.93;;;24.00;42.90;;;24.37;38.16;96998.56;5024808;28;20057;-48
2022/06/19 03:38:21;;;;;;;10.63;3.97;;;24.00;43.00;;;24.35;38.15;96989.84;5024177;28;20049;-51
2022/06/19 03:40:49;;;;;;;12.23;4.20;;;24.00;42.90;;;24.36;38.12;96990.66;5024378;28;20048;-50
2022/06/19 03:43:17;;;;;;;11.25;3.83;;;24.00;42.90;;;24.36;38.23;96979.78;5024390;28;20041;-52
2022/06/19 03:45:45;;;;;;;8.15;5.57;;;24.00;42.80;;;24.38;38.22;96988.47;5024378;28;20041;-49
2022/06/19 03:48:13;;;;;;;11.40;5.18;;;24.00;42.90;;;24.41;38.13;96984.41;5024108;28;20050;-48
2022/06/19 03:50:41;;;;;;;16.27;5.20;;;24.10;42.90;;;24.45;37.97;96985.53;5024037;28;20340;-53
2022/06/19 03:53:09;;;;;;;14.27;4.50;;;24.10;42.80;;;24.44;38.37;96986.59;5024410;28;20045;-51
2022/06/19 03:55:37;;;;;;;12.80;5.05;;;24.20;42.70;;;24.45;38.23;96990.97;5023805;28;20050;-51
2022/06/19 03:58:05;;;;;;;11.50;3.63;;;24.20;42.80;;;24.45;38.30;96986.34;5023545;28;20056;-52
2022/06/19 04:00:33;;;;;;;12.75;5.68;;;24.20;42.90;;;24.47;38.57;96986.09;5023858;28;20240;-49
2022/06/19 04:03:01;;;;;;;14.60;5.80;;;24.20;43.50;;;24.45;38.82;96986.34;5023983;28;20060;-49
2022/06/19 04:05:29;;;;;;;13.45;5.30;;;24.10;44.50;;;24.43;38.90;96983.06;5023952;28;20348;-52
2022/06/19 04:07:58;;;;;;;11.85;4.30;;;24.10;44.00;;;24.43;38.83;96987.69;5023750;28;20046;-54
2022/06/19 04:10:26;;;;;;;8.55;3.88;;;24.00;43.90;;;24.41;38.97;96982.53;5022595;28;20060;-51
2022/06/19 04:12:54;;;;;;;15.50;4.45;;;24.00;44.00;;;24.43;38.97;96979.50;5023856;28;20049;-50
2022/06/19 04:15:22;;;;;;;11.10;5.05;;;24.10;44.10;;;24.45;39.21;96980.09;5023538;28;20054;-53
2022/06/19 04:17:50;;;;;;;7.97;3.70;;;24.20;44.20;;;24.46;39.08;96979.00;5023476;28;20042;-52
2022/06/19 04:20:18;;;;;;;11.90;4.93;;;24.20;44.10;;;24.44;39.04;96990.13;5023658;28;20217;-50
2022/06/19 04:22:46;;;;;;;15.55;4.60;;;24.20;44.10;;;24.46;38.85;96998.03;5023578;28;20064;-51
2022/06/19 04:25:14;;;;;;;11.15;4.53;;;24.20;43.80;;;24.47;39.18;97000.50;5024231;28;20054;-51
2022/06/19 04:27:43;;;;;;;10.10;4.28;;;24.20;44.10;;;24.48;39.33;97004.03;5022228;28;20052;-51
2022/06/19 04:30:13;;;;;;;7.18;3.42;;;24.20;44.30;;;24.46;39.37;96998.84;5023504;28;20046;-52
2022/06/19 04:32:41;;;;;;;10.93;4.15;;;24.20;44.20;;;24.49;39.58;97003.78;5023414;28;20060;-49
2022/06/19 04:35:10;;;;;;;13.02;4.40;;;24.30;44.50;;;24.50;39.29;97012.75;5023204;28;20060;-50
2022/06/19 04:37:41;;;;;;;10.82;4.85;;;24.30;44.20;;;24.47;39.31;96994.25;5023150;28;20049;-48
2022/06/19 04:40:12;;;;;;;8.38;4.13;;;24.20;44.00;;;24.48;39.05;96998.59;5023197;28;20050;-48
2022/06/19 04:42:40;;;;;;;12.75;5.57;;;24.30;44.90;;;24.53;39.26;97002.19;5023215;28;20043;-51
2022/06/19 04:45:09;;;;;;;11.48;5.80;;;24.30;43.90;;;24.53;38.97;96996.75;5022774;28;20049;-49
2022/06/19 04:47:37;;;;;;;7.55;4.68;;;24.40;43.70;;;24.56;39.38;96993.50;5022966;28;20053;-48
2022/06/19 04:50:06;;;;;;;12.40;5.40;;;24.40;44.10;;;24.62;39.40;96991.59;5023862;28;20057;-50
2022/06/19 04:52:34;;;;;;;11.02;4.60;;;24.50;43.80;;;24.64;39.34;96991.31;5021784;28;20072;-49
2022/06/19 04:55:01;;;;;;;11.60;5.65;;;24.60;43.80;;;24.71;39.38;97002.78;5022926;28;20053;-47
2022/06/19 04:57:29;;;;;;;11.63;4.43;;;24.60;43.60;;;24.73;39.33;96998.69;5022642;28;20050;-47
2022/06/19 05:00:01;;;;;;;14.15;4.93;;;24.60;43.60;;;24.72;38.98;96999.00;5022870;28;20056;-51
2022/06/19 05:02:29;;;;;;;12.82;5.38;;;24.60;43.60;;;24.77;39.34;96994.34;5022933;28;20050;-49
2022/06/19 05:04:57;;;;;;;12.27;5.70;;;24.60;43.90;;;24.79;39.29;96998.72;5022735;28;20048;-50
2022/06/19 05:07:25;;;;;;;9.32;5.15;;;24.60;44.00;;;24.83;39.54;96997.91;5022586;28;20038;-48
2022/06/19 05:09:53;;;;;;;12.15;6.43;;;24.60;44.10;;;24.83;39.49;96991.66;5022708;28;20050;-48
2022/06/19 05:12:20;;;;;;;6.95;3.92;;;24.70;44.00;;;24.88;39.62;97000.66;5022814;28;20049;-50
2022/06/19 05:14:48;;;;;;;12.55;4.30;;;24.80;44.10;;;24.93;39.64;96999.81;5023076;28;20056;-50
2022/06/19 05:17:16;;;;;;;10.05;4.38;;;24.80;44.30;;;25.00;39.82;97003.13;5022447;28;20046;-51
2022/06/19 05:19:44;;;;;;;8.75;4.80;;;24.90;44.50;;;25.05;39.70;97003.13;5023063;28;20053;-53
2022/06/19 05:22:12;;;;;;;7.13;3.92;;;25.00;44.30;;;25.10;39.50;97005.84;5022510;28;20240;-50
2022/06/19 05:24:40;;;;;;;12.43;5.28;;;25.00;44.10;;;25.14;39.55;97006.97;5021419;28;20052;-49
2022/06/19 05:27:10;;;;;;;10.93;4.13;;;25.10;44.10;;;25.22;39.92;97002.06;5022618;28;20050;-49
2022/06/19 05:29:39;;;;;;;12.40;5.65;;;25.20;44.20;;;25.26;39.76;97004.00;5022481;28;20346;-49
2022/06/19 05:32:07;;;;;;;13.13;4.90;;;25.20;43.90;;;25.29;39.49;97002.63;5021854;28;20061;-53
2022/06/19 05:34:37;;;;;;;10.23;4.68;;;25.20;43.90;;;25.31;39.34;97004.00;5022932;28;20057;-50
2022/06/19 05:37:05;;;;;;;10.13;4.80;;;25.30;43.70;;;25.34;39.60;97011.63;5022833;28;20243;-53
2022/06/19 05:39:34;;;;;;;6.28;4.45;;;25.30;44.00;;;25.39;39.71;97004.56;5022075;28;20229;-51
2022/06/19 05:42:04;;;;;;;10.10;5.50;;;25.30;44.10;;;25.44;39.94;97004.56;5022297;28;20042;-50
2022/06/19 05:44:32;;;;;;;11.05;4.63;;;25.40;44.40;;;25.47;40.10;97004.81;5022198;28;20042;-51
2022/06/19 05:47:00;;;;;;;10.10;4.82;;;25.50;44.60;;;25.55;40.39;97006.16;5022132;28;20340;-54
2022/06/19 05:49:28;;;;;;;12.68;5.65;;;25.50;44.70;;;25.61;40.13;96996.09;5022577;28;20053;-52
2022/06/19 05:51:56;;;;;;;12.27;5.20;;;25.60;44.90;;;25.65;40.68;97003.47;5022155;28;20050;-54
2022/06/19 05:54:23;;;;;;;9.05;4.38;;;25.60;45.00;;;25.70;40.37;97006.16;5022175;28;20048;-53
2022/06/19 05:56:51;;;;;;;9.40;4.65;;;25.70;44.90;;;25.74;40.37;97007.28;5022187;28;20054;-50
2022/06/19 05:59:19;;;;;;;15.25;5.05;;;25.80;44.80;;;25.72;40.24;97006.69;5021755;28;20046;-51
2022/06/19 06:01:47;;;;;;;9.07;4.55;;;25.80;44.60;;;25.69;40.23;97003.72;5022133;28;20352;-51
2022/06/19 06:04:15;;;;;;;11.65;4.57;;;25.80;44.30;;;25.70;40.04;96989.81;5021702;28;20058;-49
2022/06/19 06:06:43;;;;;;;11.13;4.95;;;25.80;44.20;;;25.68;40.21;96996.63;5022065;28;20046;-51
2022/06/19 06:09:13;;;;;;;11.05;4.68;;;25.80;44.10;;;25.72;40.43;96995.00;5021652;28;20041;-54
2022/06/19 06:11:41;;;;;;;9.65;4.47;;;25.80;44.30;;;25.75;40.30;96999.91;5022115;28;20046;-49
2022/06/19 06:14:09;;;;;;;12.15;5.30;;;25.80;44.20;;;25.80;40.05;96999.88;5021878;28;20057;-50
2022/06/19 06:16:37;;;;;;;16.35;5.57;;;25.90;44.00;;;25.84;40.12;96998.25;5022285;28;20355;-53
2022/06/19 06:19:05;;;;;;;13.20;5.28;;;26.00;44.30;;;25.90;39.75;97002.59;5021689;28;20075;-50
2022/06/19 06:21:33;;;;;;;14.85;5.18;;;26.00;44.10;;;25.90;39.83;96994.44;5022613;28;20057;-51
2022/06/19 06:24:01;;;;;;;15.25;5.35;;;26.00;44.10;;;25.88;39.84;96999.34;5021760;28;20042;-49
2022/06/19 06:26:29;;;;;;;12.02;4.88;;;26.10;44.10;;;25.95;39.75;97001.00;5021945;28;20052;-50
2022/06/19 06:28:59;;;;;;;9.57;4.55;;;26.10;44.10;;;26.00;40.02;97004.53;5021133;28;20046;-50
2022/06/19 06:31:28;;;;;;;14.45;7.78;;;26.20;44.20;;;26.07;39.89;97012.41;5021716;28;20086;-51
2022/06/19 06:33:58;;;;;;;11.93;5.72;;;26.20;44.30;;;26.13;40.28;97006.69;5022423;28;20054;-52
2022/06/19 06:36:28;;;;;;;14.25;5.60;;;26.30;44.30;;;26.15;40.52;97011.03;5024725;28;20060;-48
2022/06/19 06:38:57;;;;;;;9.88;5.32;;;26.30;44.30;;;26.20;39.85;97009.09;5025527;28;20247;-50
2022/06/19 06:41:25;;;;;;;12.48;4.80;;;26.40;44.00;;;26.27;40.14;97015.09;5024541;28;20046;-49
2022/06/19 06:43:54;;;;;;;9.55;5.63;;;26.50;43.90;;;26.35;39.80;97013.69;5025401;28;20046;-54
2022/06/19 06:46:25;;;;;;;12.65;4.72;;;26.50;44.80;;;26.43;40.03;97012.31;5025043;28;20384;-49
2022/06/19 06:48:59;;;;;;;15.18;6.18;;;26.60;44.30;;;26.49;40.05;97019.38;5024264;28;20041;-50
2022/06/19 06:51:28;;;;;;;15.20;4.65;;;26.70;44.20;;;26.55;39.72;97006.53;5025341;28;20188;-54
2022/06/19 06:53:58;;;;;;;12.70;4.88;;;26.70;43.90;;;26.60;40.18;97014.69;5025367;28;20383;-51
2022/06/19 06:56:33;;;;;;;13.10;5.95;;;26.80;43.80;;;26.63;40.14;97011.44;5025284;28;20056;-51
2022/06/19 06:59:02;;;;;;;8.43;4.80;;;26.80;43.90;;;26.69;39.63;97015.75;5025010;28;20060;-48
2022/06/19 07:01:32;;;;;;;10.68;4.78;;;26.80;43.60;;;26.77;40.12;97017.09;5024884;28;20293;-52
2022/06/19 07:04:00;;;;;;;17.00;6.10;;;26.90;43.70;;;26.83;40.27;97018.69;5025388;28;20054;-47
2022/06/19 07:06:30;;;;;;;10.52;5.82;;;27.00;44.40;;;26.83;39.89;97014.06;5025139;28;20045;-46
2022/06/19 07:08:59;;;;;;;11.35;6.05;;;27.00;44.40;;;26.89;39.75;97007.47;5024410;28;20052;-46
2022/06/19 07:11:33;;;;;;;10.48;5.47;;;27.00;44.50;;;26.92;39.91;97009.63;5023777;28;20042;-47
2022/06/19 07:14:01;;;;;;;19.45;6.13;;;27.10;44.40;;;26.98;40.33;97012.34;5023820;28;20046;-48
2022/06/19 07:16:29;;;;;;;15.02;6.18;;;27.10;44.40;;;27.02;39.55;97021.59;5024830;28;20052;-51
2022/06/19 07:18:58;;;;;;;16.85;5.90;;;27.20;44.00;;;27.08;39.96;97023.19;5024998;28;20178;-50
2022/06/19 07:21:25;;;;;;;10.52;4.95;;;27.20;43.80;;;27.07;39.71;97024.31;5024846;28;20340;-49
2022/06/19 07:23:53;;;;;;;11.23;5.40;;;27.30;44.10;;;27.09;40.30;97017.44;5024761;28;20041;-49
2022/06/19 07:26:24;;;;;;;9.88;6.60;;;27.30;44.10;;;27.17;39.61;97017.94;5024419;28;20046;-51
2022/06/19 07:28:52;;;;;;;9.38;5.82;;;27.30;43.70;;;27.17;39.63;97016.03;5007453;28;20068;-50
2022/06/19 07:31:26;;;;;;;13.98;5.13;;;27.30;43.50;;;27.20;39.83;97009.16;5024735;28;20042;-48
2022/06/19 07:33:54;;;;;;;12.68;5.10;;;27.40;43.50;;;27.27;39.08;97013.25;5023459;28;20042;-49
2022/06/19 07:36:23;;;;;;;11.20;4.95;;;27.40;43.30;;;27.31;39.60;97016.22;5024574;28;20050;-52
2022/06/19 07:38:51;;;;;;;20.45;6.57;;;27.40;43.30;;;27.36;39.12;97020.88;5024315;28;20045;-48
2022/06/19 07:41:19;;;;;;;10.10;6.00;;;27.60;43.30;;;27.38;39.42;97019.47;5024427;28;20076;-48
2022/06/19 07:43:50;;;;;;;12.88;5.18;;;27.60;43.40;;;27.46;39.46;97023.50;5024294;28;20042;-51
2022/06/19 07:46:19;;;;;;;19.35;6.28;;;27.60;43.20;;;27.50;39.33;97025.38;5023866;28;20056;-49
2022/06/19 07:51:34;;;;;;;10.57;5.68;;;27.70;43.10;;;27.62;39.14;97025.00;5024382;28;20045;-53
2022/06/19 07:54:02;;;;;;;10.13;6.45;;;27.80;42.80;;;27.67;38.55;97026.91;5024268;28;20058;-50
2022/06/19 07:56:30;;;;;;;12.38;5.85;;;27.90;42.50;;;27.72;39.19;97023.28;5023906;28;20050;-49
2022/06/19 07:58:58;;;;;;;15.77;5.95;;;27.90;42.60;;;27.75;38.70;97023.53;5023998;28;20053;-53
2022/06/19 08:01:26;;;;;;;13.60;7.80;;;28.00;42.60;;;27.80;38.26;97022.66;5024176;28;20061;-49
2022/06/19 08:04:14;;;;;;;12.65;6.32;;;28.00;42.50;;;27.86;38.83;97024.25;5023908;28;20046;-47
2022/06/19 08:06:42;;;;;;;11.18;6.32;;;28.00;42.70;;;27.93;38.37;97018.47;5024028;28;20244;-51
2022/06/19 08:09:09;;;;;;;11.50;7.97;;;28.10;42.50;;;27.99;38.48;97018.13;5023697;28;20245;-52
2022/06/19 08:11:37;;;;;;;10.68;6.50;;;28.10;42.10;;;28.02;38.20;97014.81;5023703;28;20045;-50
2022/06/19 08:14:05;;;;;;;16.95;7.93;;;28.20;42.00;;;28.11;38.50;97016.91;5023709;28;20056;-53
2022/06/19 08:16:34;;;;;;;7.45;6.13;;;28.30;42.20;;;28.18;38.41;97011.94;5023679;28;20064;-50
2022/06/19 08:19:02;;;;;;;14.75;7.95;;;28.40;42.00;;;28.24;37.99;97017.03;5023689;28;20052;-51
2022/06/19 08:21:30;;;;;;;13.55;6.95;;;28.40;42.10;;;28.33;38.25;97010.94;5023846;28;20045;-48
2022/06/19 08:23:58;;;;;;;8.45;6.00;;;28.50;41.90;;;28.38;38.54;97003.50;5023462;28;20041;-47
2022/06/19 08:26:26;;;;;;;16.52;7.78;;;28.50;42.20;;;28.44;38.46;97015.16;5023633;28;20241;-49
2022/06/19 08:29:03;;;;;;;11.27;7.20;;;28.60;41.90;;;28.49;38.40;96998.69;5023357;28;20048;-47
2022/06/19 08:31:32;;;;;;;14.25;7.72;;;28.60;42.10;;;28.56;37.94;96995.66;5022564;28;20042;-50
2022/06/19 08:34:01;;;;;;;14.85;8.15;;;28.80;41.70;;;28.63;38.27;96993.34;5023469;28;20049;-49
2022/06/19 08:36:33;;;;;;;10.95;7.20;;;28.80;42.10;;;28.75;38.87;97003.88;5023556;28;20050;-53
2022/06/19 08:39:06;;;;;;;17.42;7.75;;;28.90;42.40;;;28.89;37.95;96993.81;5022899;28;20054;-48
2022/06/19 08:42:31;;;;;;;10.90;7.13;;;29.20;41.60;;;28.96;37.98;97001.66;5022526;28;20050;-49
2022/06/19 08:45:10;;;;;;;10.93;6.65;;;29.40;41.10;;;29.09;37.83;97000.94;5020970;28;20052;-50
2022/06/19 08:48:06;;;;;;;10.27;8.00;;;29.60;41.10;;;29.16;35.18;97006.06;5022490;28;20061;-51
2022/06/19 08:51:00;;;;;;;13.82;6.85;;;29.60;40.90;;;29.36;36.20;97015.91;5022748;28;20248;-52
2022/06/19 08:53:45;;;;;;;11.98;6.32;;;30.10;38.40;;;29.54;35.70;97004.06;5023221;28;20088;-48
2022/06/19 08:56:50;;;;;;;10.77;7.30;;;30.30;38.00;;;29.70;31.94;97007.41;5022541;28;20056;-49
2022/06/19 08:59:41;;;;;;;12.60;6.85;;;30.50;33.20;;;29.79;30.61;97010.28;5022439;28;20072;-47
2022/06/19 09:02:43;;;;;;;8.50;7.45;;;30.50;31.90;;;29.96;28.94;97016.00;5021817;28;20382;-48
2022/06/19 09:05:46;;;;;;;10.95;7.60;;;30.80;29.50;;;30.11;29.10;97017.66;5022130;28;20084;-47
2022/06/19 09:08:57;;;;;;;11.85;6.55;;;30.90;30.10;;;30.18;29.07;97009.81;5021662;28;20240;-49
2022/06/19 09:11:46;;;;;;;10.65;7.35;;;30.90;29.60;;;30.25;28.27;96997.66;5020986;28;20352;-50
2022/06/19 09:14:29;;;;;;;12.38;7.45;;;31.00;29.60;;;30.45;27.54;96997.25;5022660;28;20052;-54
2022/06/19 09:17:18;;;;;;;12.45;7.07;;;31.30;28.80;;;30.61;27.77;97001.31;5022950;28;20058;-50
2022/06/19 09:20:12;;;;;;;10.13;7.30;;;31.50;28.90;;;30.74;26.86;97004.34;5021430;28;20362;-47
2022/06/19 09:23:01;;;;;;;9.23;6.28;;;31.60;28.20;;;30.85;26.53;96994.78;5022787;28;20344;-49
2022/06/19 09:25:44;;;;;;;12.10;7.63;;;31.60;28.50;;;30.84;25.75;96987.63;5021402;28;20362;-51
2022/06/19 09:28:39;;;;;;;8.70;6.53;;;31.50;27.10;;;30.89;26.19;96995.81;5022205;28;20062;-48
2022/06/19 09:31:45;;;;;;;8.00;6.85;;;31.60;27.90;;;30.99;25.95;96992.03;5022825;28;20239;-51
2022/06/19 09:34:47;;;;;;;12.18;6.53;;;31.70;27.90;;;31.00;26.21;96991.72;5022474;28;20050;-51
2022/06/19 09:37:25;;;;;;;9.57;6.75;;;31.70;27.50;;;31.09;25.80;96983.53;5022388;28;20060;-50
2022/06/19 09:40:13;;;;;;;8.60;7.10;;;31.80;27.40;;;31.25;25.87;96980.41;5023287;28;20058;-53
2022/06/19 09:42:55;;;;;;;8.82;6.55;;;32.00;28.00;;;31.33;25.18;96976.91;5022440;28;20053;-52
2022/06/19 09:45:43;;;;;;;7.70;6.72;;;32.20;26.90;;;31.42;24.46;96974.25;5020761;28;20240;-52
2022/06/19 09:48:41;;;;;;;11.02;6.55;;;32.20;26.70;;;31.44;24.52;96980.25;5021640;28;20383;-49
2022/06/19 09:51:40;;;;;;;12.27;7.53;;;32.10;26.90;;;31.52;25.22;96982.25;5022565;28;20050;-51
2022/06/19 09:54:37;;;;;;;13.95;6.70;;;32.20;27.30;;;31.52;24.96;96976.75;5021270;28;20056;-50
2022/06/19 09:57:15;;;;;;;14.45;8.18;;;32.20;27.10;;;31.62;25.55;96979.28;5021329;28;20356;-52
2022/06/19 09:59:57;;;;;;;9.65;6.28;;;32.20;27.40;;;31.62;24.58;96975.69;5022172;28;20134;-52
2022/06/19 10:02:49;;;;;;;11.10;6.72;;;32.20;27.20;;;31.72;25.25;96975.44;5021326;28;20060;-50
2022/06/19 10:05:48;;;;;;;12.98;6.20;;;32.40;26.90;;;31.65;24.53;96970.38;5021169;28;20060;-49
2022/06/19 10:08:52;;;;;;;7.78;6.38;;;32.40;26.50;;;31.68;23.99;96989.00;5022222;28;20056;-50
2022/06/19 10:11:34;;;;;;;11.63;6.50;;;32.30;26.10;;;31.76;24.61;96974.50;5026008;28;20275;-50
2022/06/19 10:14:14;;;;;;;8.73;6.18;;;32.30;27.10;;;31.77;24.73;96972.53;5025034;28;20052;-52
2022/06/19 10:16:58;;;;;;;18.23;7.03;;;32.20;27.20;;;31.77;24.97;96983.53;5026192;28;20050;-49
2022/06/19 10:20:00;;;;;;;10.77;6.63;;;32.10;27.70;;;31.79;24.97;96976.63;5026324;28;20266;-52
2022/06/19 10:23:07;;;;;;;12.05;6.47;;;32.40;26.90;;;31.83;24.24;96971.28;5026180;28;20056;-51
2022/06/19 10:26:00;;;;;;;16.08;6.90;;;32.50;26.60;;;31.88;24.40;96965.66;5025886;28;20049;-47
2022/06/19 10:28:47;;;;;;;10.32;6.45;;;32.50;26.60;;;32.00;24.39;96962.31;5024166;28;20041;-51
2022/06/19 10:31:54;;;;;;;8.00;6.53;;;32.70;26.60;;;32.03;23.94;96961.72;5024785;28;20041;-49
2022/06/19 10:34:49;;;;;;;10.38;7.15;;;32.80;26.00;;;32.12;24.48;96961.72;5025611;28;20057;-50
2022/06/19 10:38:06;;;;;;;10.50;6.38;;;32.80;26.40;;;32.18;23.95;96972.31;5024758;28;20057;-52
2022/06/19 10:41:03;;;;;;;9.13;6.05;;;32.80;26.30;;;32.26;24.31;96958.84;5023705;28;20070;-53
2022/06/19 10:43:55;;;;;;;10.05;7.10;;;32.90;26.30;;;32.28;24.02;96959.34;5023479;28;20058;-52
2022/06/19 10:46:26;;;;;;;13.27;7.57;;;33.00;26.20;;;32.40;23.92;96958.72;5025276;28;20058;-49